Detalii statie Lilieci, IL [00001199]

Toti senzorii

Date Temperatura solului [C]Precipitatii [mm]Voltaj baterie [mV]Leaf Wetness [Min]HC Air temperature [C]HC Relative humidity [%]Punctul de roua [C]
medieminmaxsumaultimatimpmedieminmaxmediemediemin
2019-02-21 02:00:00 5.2 5 5.5 0 6512 0 6.81 6.21 7.1 77.21 2.9 2.5
2019-02-21 04:00:00 4.8 4.7 5.1 0 6502 0 5.83 4.81 6.56 82.63 2.9 2
2019-02-21 06:00:00 4.2 3.7 4.7 0 6512 0 3.22 1.46 4.79 95.63 2.4 1.4
2019-02-21 08:00:00 3.2 2.9 3.7 0 6590 0 1.24 0.44 2.47 100 1.2 0.4
2019-02-21 10:00:00 3.3 3 3.8 0 6894 0 4.55 2.63 6.59 95.24 3.7 2.6
2019-02-21 12:00:00 4.7 3.8 6.1 0 6884 0 10.04 6.73 11.8 55.29 1.1 -0.2
2019-02-21 14:00:00 7.1 6.1 7.7 0 6884 0 12.05 11.41 12.66 44.78 0.2 -0.5
2019-02-21 16:00:00 7.5 7.4 7.8 0 6884 0 12.23 11.69 12.99 43.72 0 -2.3
2019-02-21 18:00:00 7.3 6.7 7.7 0 6660 0 11.42 9.96 12.69 39.98 -1.8 -2.8
2019-02-21 20:00:00 6.2 5.8 6.7 0 6572 0 8.37 6.76 9.84 51.59 -1.1 -2
2019-02-21 22:00:00 5.1 4.6 5.8 0 6552 0 4.88 2.95 6.84 66.01 -1 -1.5
2019-02-22 00:00:00 3.9 3.4 4.7 0 6532 0 2.24 1.29 2.89 78.25 -1.2 -2.1
2019-02-22 02:00:00 3 2.7 3.5 0 6512 0 1.52 0.75 2.4 79.73 -1.6 -2.3
2019-02-22 04:00:00 2.5 2.2 2.8 0 6502 0 0.74 0.46 1.17 91.09 -0.5 -1.4
2019-02-22 06:00:00 2.2 2 2.3 0 6484 0 0.99 0.13 1.49 97.57 0.5 -0.2
2019-02-22 08:00:00 1.8 1.7 2.1 0 6600 0 0.38 -0.99 1.49 98.66 0.1 -0.8
2019-02-22 10:00:00 2.3 1.8 3 0 6894 0 3.59 1.68 6.46 84.07 0.9 0.1
2019-02-22 12:00:00 4.1 3.1 5 0 6894 0 7.78 6.88 8.9 59.21 0.1 -1.1
2019-02-22 14:00:00 5.6 5 6 0 6884 0 8.74 8.22 10.05 54.21 -0.1 -1.3
2019-02-22 16:00:00 5.9 5.8 6.1 0 6884 0 6.95 6.11 8.29 76.65 2.9 0.9
2019-02-22 18:00:00 4.9 3.9 5.9 0.6 6678 0 1.45 -0.21 6.09 94.67 0.6 -2.6